sensor_id;sensor_type;location;lat;lon;timestamp;temperature;humidity
10263;DHT22;5177;50.068;8.156;2022-08-19T00:00:25;22.70;99.90
10263;DHT22;5177;50.068;8.156;2022-08-19T00:02:52;22.70;99.90
10263;DHT22;5177;50.068;8.156;2022-08-19T00:05:18;22.70;99.90
10263;DHT22;5177;50.068;8.156;2022-08-19T00:07:44;22.70;99.90
10263;DHT22;5177;50.068;8.156;2022-08-19T00:10:10;22.70;99.90
10263;DHT22;5177;50.068;8.156;2022-08-19T00:12:36;22.60;99.90
10263;DHT22;5177;50.068;8.156;2022-08-19T00:15:06;22.70;99.90
10263;DHT22;5177;50.068;8.156;2022-08-19T00:17:32;22.60;99.90
10263;DHT22;5177;50.068;8.156;2022-08-19T00:19:58;22.60;99.90
10263;DHT22;5177;50.068;8.156;2022-08-19T00:22:23;22.60;99.90
10263;DHT22;5177;50.068;8.156;2022-08-19T00:24:48;22.60;99.90
10263;DHT22;5177;50.068;8.156;2022-08-19T00:27:14;22.50;99.90
10263;DHT22;5177;50.068;8.156;2022-08-19T00:29:40;22.50;99.90
10263;DHT22;5177;50.068;8.156;2022-08-19T00:32:05;22.50;99.90
10263;DHT22;5177;50.068;8.156;2022-08-19T00:34:31;22.50;99.90
10263;DHT22;5177;50.068;8.156;2022-08-19T00:36:57;22.50;99.90
10263;DHT22;5177;50.068;8.156;2022-08-19T00:39:23;22.50;1.00
10263;DHT22;5177;50.068;8.156;2022-08-19T00:41:50;22.40;1.00
10263;DHT22;5177;50.068;8.156;2022-08-19T00:44:17;22.30;1.00
10263;DHT22;5177;50.068;8.156;2022-08-19T00:46:45;22.40;1.00
10263;DHT22;5177;50.068;8.156;2022-08-19T00:49:16;22.30;1.00
10263;DHT22;5177;50.068;8.156;2022-08-19T00:51:43;22.30;1.00
10263;DHT22;5177;50.068;8.156;2022-08-19T00:54:10;22.30;1.00
10263;DHT22;5177;50.068;8.156;2022-08-19T00:56:36;22.30;1.00
10263;DHT22;5177;50.068;8.156;2022-08-19T00:59:02;22.30;1.00
10263;DHT22;5177;50.068;8.156;2022-08-19T01:01:28;22.40;1.00
10263;DHT22;5177;50.068;8.156;2022-08-19T01:03:54;22.40;1.00
10263;DHT22;5177;50.068;8.156;2022-08-19T01:06:20;22.40;99.90
10263;DHT22;5177;50.068;8.156;2022-08-19T01:08:45;22.50;99.90
10263;DHT22;5177;50.068;8.156;2022-08-19T01:11:11;22.50;99.90
10263;DHT22;5177;50.068;8.156;2022-08-19T01:13:37;22.60;99.90
10263;DHT22;5177;50.068;8.156;2022-08-19T01:16:04;22.60;99.90
10263;DHT22;5177;50.068;8.156;2022-08-19T01:18:30;22.60;99.90
10263;DHT22;5177;50.068;8.156;2022-08-19T01:20:58;22.60;99.90
10263;DHT22;5177;50.068;8.156;2022-08-19T01:23:24;22.60;1.00
10263;DHT22;5177;50.068;8.156;2022-08-19T01:26:18;22.60;1.00
10263;DHT22;5177;50.068;8.156;2022-08-19T01:28:44;22.50;1.00
10263;DHT22;5177;50.068;8.156;2022-08-19T01:31:13;22.50;1.00
10263;DHT22;5177;50.068;8.156;2022-08-19T01:33:39;22.40;1.00
10263;DHT22;5177;50.068;8.156;2022-08-19T01:36:10;22.40;1.00
10263;DHT22;5177;50.068;8.156;2022-08-19T01:38:37;22.40;1.00
10263;DHT22;5177;50.068;8.156;2022-08-19T01:41:03;22.30;1.00
10263;DHT22;5177;50.068;8.156;2022-08-19T01:43:32;22.30;1.00
10263;DHT22;5177;50.068;8.156;2022-08-19T01:45:57;22.40;1.00
10263;DHT22;5177;50.068;8.156;2022-08-19T01:48:23;22.40;1.00
10263;DHT22;5177;50.068;8.156;2022-08-19T01:50:49;22.40;1.00
10263;DHT22;5177;50.068;8.156;2022-08-19T01:53:14;22.40;1.00
10263;DHT22;5177;50.068;8.156;2022-08-19T01:55:41;22.40;1.00
10263;DHT22;5177;50.068;8.156;2022-08-19T01:58:08;22.40;1.00
10263;DHT22;5177;50.068;8.156;2022-08-19T02:00:35;22.50;1.00
10263;DHT22;5177;50.068;8.156;2022-08-19T02:03:01;22.50;1.00
10263;DHT22;5177;50.068;8.156;2022-08-19T02:05:26;22.50;1.00
10263;DHT22;5177;50.068;8.156;2022-08-19T02:07:54;22.50;1.00
10263;DHT22;5177;50.068;8.156;2022-08-19T02:10:21;22.50;1.00
10263;DHT22;5177;50.068;8.156;2022-08-19T02:12:46;22.50;1.00
10263;DHT22;5177;50.068;8.156;2022-08-19T02:15:12;22.40;1.00
10263;DHT22;5177;50.068;8.156;2022-08-19T02:17:38;22.40;1.00
10263;DHT22;5177;50.068;8.156;2022-08-19T02:20:04;22.40;1.00
10263;DHT22;5177;50.068;8.156;2022-08-19T02:22:30;22.40;1.00
10263;DHT22;5177;50.068;8.156;2022-08-19T02:24:55;22.40;1.00
10263;DHT22;5177;50.068;8.156;2022-08-19T02:27:21;22.40;1.00
10263;DHT22;5177;50.068;8.156;2022-08-19T02:29:47;22.40;1.00
10263;DHT22;5177;50.068;8.156;2022-08-19T02:32:14;22.30;1.00
10263;DHT22;5177;50.068;8.156;2022-08-19T02:34:40;22.30;1.00
10263;DHT22;5177;50.068;8.156;2022-08-19T02:37:06;22.30;1.00
10263;DHT22;5177;50.068;8.156;2022-08-19T02:39:51;22.30;1.00
10263;DHT22;5177;50.068;8.156;2022-08-19T02:42:17;22.30;1.00
10263;DHT22;5177;50.068;8.156;2022-08-19T02:44:42;22.30;1.00
10263;DHT22;5177;50.068;8.156;2022-08-19T02:47:08;22.20;1.00
10263;DHT22;5177;50.068;8.156;2022-08-19T02:49:34;22.20;1.00
10263;DHT22;5177;50.068;8.156;2022-08-19T02:52:00;22.20;1.00
10263;DHT22;5177;50.068;8.156;2022-08-19T02:54:25;22.10;1.00
10263;DHT22;5177;50.068;8.156;2022-08-19T02:57:09;22.10;1.00
10263;DHT22;5177;50.068;8.156;2022-08-19T02:59:35;22.00;1.00
10263;DHT22;5177;50.068;8.156;2022-08-19T03:02:01;22.00;1.00
10263;DHT22;5177;50.068;8.156;2022-08-19T03:04:26;21.90;1.00
10263;DHT22;5177;50.068;8.156;2022-08-19T03:06:52;21.90;1.00
10263;DHT22;5177;50.068;8.156;2022-08-19T03:09:18;21.80;1.00
10263;DHT22;5177;50.068;8.156;2022-08-19T03:11:43;21.80;1.00
10263;DHT22;5177;50.068;8.156;2022-08-19T03:14:09;21.80;1.00
10263;DHT22;5177;50.068;8.156;2022-08-19T03:16:40;21.80;1.00
10263;DHT22;5177;50.068;8.156;2022-08-19T03:19:06;21.80;1.00
10263;DHT22;5177;50.068;8.156;2022-08-19T03:21:32;21.70;1.00
10263;DHT22;5177;50.068;8.156;2022-08-19T03:23:59;21.70;1.00
10263;DHT22;5177;50.068;8.156;2022-08-19T03:26:25;21.60;1.00
10263;DHT22;5177;50.068;8.156;2022-08-19T03:28:51;21.60;1.00
10263;DHT22;5177;50.068;8.156;2022-08-19T03:31:18;21.60;1.00
10263;DHT22;5177;50.068;8.156;2022-08-19T03:33:44;21.60;1.00
10263;DHT22;5177;50.068;8.156;2022-08-19T03:36:14;21.60;1.00
10263;DHT22;5177;50.068;8.156;2022-08-19T03:38:41;21.60;1.00
10263;DHT22;5177;50.068;8.156;2022-08-19T03:41:07;21.60;1.00
10263;DHT22;5177;50.068;8.156;2022-08-19T03:43:34;21.60;1.00
10263;DHT22;5177;50.068;8.156;2022-08-19T03:46:01;21.60;1.00
10263;DHT22;5177;50.068;8.156;2022-08-19T03:48:27;21.50;1.00
10263;DHT22;5177;50.068;8.156;2022-08-19T03:50:53;21.50;1.00
10263;DHT22;5177;50.068;8.156;2022-08-19T03:53:18;21.50;1.00
10263;DHT22;5177;50.068;8.156;2022-08-19T03:55:44;21.50;1.00
10263;DHT22;5177;50.068;8.156;2022-08-19T03:58:09;21.50;1.00
10263;DHT22;5177;50.068;8.156;2022-08-19T04:00:36;21.50;1.00
10263;DHT22;5177;50.068;8.156;2022-08-19T04:03:02;21.50;1.00
10263;DHT22;5177;50.068;8.156;2022-08-19T04:05:28;21.50;1.00
10263;DHT22;5177;50.068;8.156;2022-08-19T04:07:53;21.50;1.00
10263;DHT22;5177;50.068;8.156;2022-08-19T04:10:22;21.50;1.00
10263;DHT22;5177;50.068;8.156;2022-08-19T04:12:49;21.50;1.00
10263;DHT22;5177;50.068;8.156;2022-08-19T04:15:14;21.40;1.00
10263;DHT22;5177;50.068;8.156;2022-08-19T04:17:40;21.40;1.00
10263;DHT22;5177;50.068;8.156;2022-08-19T04:20:06;21.30;1.00
10263;DHT22;5177;50.068;8.156;2022-08-19T04:22:31;21.30;1.00
10263;DHT22;5177;50.068;8.156;2022-08-19T04:24:57;21.30;1.00
10263;DHT22;5177;50.068;8.156;2022-08-19T04:27:22;21.20;1.00
10263;DHT22;5177;50.068;8.156;2022-08-19T04:29:48;21.20;1.00
10263;DHT22;5177;50.068;8.156;2022-08-19T04:32:13;21.10;5.00
10263;DHT22;5177;50.068;8.156;2022-08-19T04:34:40;21.10;11.20
10263;DHT22;5177;50.068;8.156;2022-08-19T04:37:08;21.10;11.40
10263;DHT22;5177;50.068;8.156;2022-08-19T04:39:37;21.00;11.40
10263;DHT22;5177;50.068;8.156;2022-08-19T04:42:21;21.00;15.20
10263;DHT22;5177;50.068;8.156;2022-08-19T04:45:12;21.00;20.20
10263;DHT22;5177;50.068;8.156;2022-08-19T04:47:38;21.00;17.60
10263;DHT22;5177;50.068;8.156;2022-08-19T04:50:04;21.00;20.70
10263;DHT22;5177;50.068;8.156;2022-08-19T04:52:30;21.00;21.90
10263;DHT22;5177;50.068;8.156;2022-08-19T04:54:56;21.10;14.40
10263;DHT22;5177;50.068;8.156;2022-08-19T04:57:22;21.10;25.80
10263;DHT22;5177;50.068;8.156;2022-08-19T04:59:48;21.10;29.80
10263;DHT22;5177;50.068;8.156;2022-08-19T05:02:13;21.20;38.20
10263;DHT22;5177;50.068;8.156;2022-08-19T05:04:39;21.20;29.40
10263;DHT22;5177;50.068;8.156;2022-08-19T05:07:05;21.20;27.80
10263;DHT22;5177;50.068;8.156;2022-08-19T05:09:30;21.20;18.10
10263;DHT22;5177;50.068;8.156;2022-08-19T05:11:56;21.20;3.00
10263;DHT22;5177;50.068;8.156;2022-08-19T05:14:22;21.30;1.00
10263;DHT22;5177;50.068;8.156;2022-08-19T05:16:48;21.30;1.00
10263;DHT22;5177;50.068;8.156;2022-08-19T05:19:13;21.40;1.00
10263;DHT22;5177;50.068;8.156;2022-08-19T05:21:58;21.40;1.00
10263;DHT22;5177;50.068;8.156;2022-08-19T05:24:42;21.40;1.00
10263;DHT22;5177;50.068;8.156;2022-08-19T05:27:08;21.40;1.00
10263;DHT22;5177;50.068;8.156;2022-08-19T05:29:34;21.40;1.00
10263;DHT22;5177;50.068;8.156;2022-08-19T05:32:00;21.50;1.00
10263;DHT22;5177;50.068;8.156;2022-08-19T05:34:26;21.50;1.00
10263;DHT22;5177;50.068;8.156;2022-08-19T05:36:52;21.50;1.00
10263;DHT22;5177;50.068;8.156;2022-08-19T05:39:22;21.50;1.00
10263;DHT22;5177;50.068;8.156;2022-08-19T05:41:49;21.60;1.00
10263;DHT22;5177;50.068;8.156;2022-08-19T05:44:15;21.60;1.00
10263;DHT22;5177;50.068;8.156;2022-08-19T05:46:44;21.70;1.00
10263;DHT22;5177;50.068;8.156;2022-08-19T05:49:12;21.70;1.00
10263;DHT22;5177;50.068;8.156;2022-08-19T05:51:38;21.80;1.00
10263;DHT22;5177;50.068;8.156;2022-08-19T05:54:04;21.90;1.00
10263;DHT22;5177;50.068;8.156;2022-08-19T05:56:30;22.00;1.00
10263;DHT22;5177;50.068;8.156;2022-08-19T05:58:57;22.10;1.00
10263;DHT22;5177;50.068;8.156;2022-08-19T06:01:24;22.10;1.00
10263;DHT22;5177;50.068;8.156;2022-08-19T06:03:50;22.20;1.00
10263;DHT22;5177;50.068;8.156;2022-08-19T06:06:16;22.20;1.00
10263;DHT22;5177;50.068;8.156;2022-08-19T06:08:41;22.30;1.00
10263;DHT22;5177;50.068;8.156;2022-08-19T06:11:51;22.30;1.00
10263;DHT22;5177;50.068;8.156;2022-08-19T06:13:57;22.40;1.00
10263;DHT22;5177;50.068;8.156;2022-08-19T06:16:25;22.40;1.00
10263;DHT22;5177;50.068;8.156;2022-08-19T06:18:51;22.50;1.00
10263;DHT22;5177;50.068;8.156;2022-08-19T06:21:21;22.50;1.00
10263;DHT22;5177;50.068;8.156;2022-08-19T06:23:47;22.50;1.00
10263;DHT22;5177;50.068;8.156;2022-08-19T06:26:13;22.50;1.00
10263;DHT22;5177;50.068;8.156;2022-08-19T06:28:39;22.50;1.00
10263;DHT22;5177;50.068;8.156;2022-08-19T06:31:08;22.50;1.00
10263;DHT22;5177;50.068;8.156;2022-08-19T06:33:34;22.50;1.00
10263;DHT22;5177;50.068;8.156;2022-08-19T06:36:00;22.50;1.00
10263;DHT22;5177;50.068;8.156;2022-08-19T06:38:25;22.60;1.00
10263;DHT22;5177;50.068;8.156;2022-08-19T06:40:51;22.70;1.00
10263;DHT22;5177;50.068;8.156;2022-08-19T06:43:24;22.70;1.00
10263;DHT22;5177;50.068;8.156;2022-08-19T06:45:50;22.90;1.00
10263;DHT22;5177;50.068;8.156;2022-08-19T06:48:17;22.90;1.00
10263;DHT22;5177;50.068;8.156;2022-08-19T06:50:42;23.00;1.00
10263;DHT22;5177;50.068;8.156;2022-08-19T06:53:07;23.10;1.00
10263;DHT22;5177;50.068;8.156;2022-08-19T06:55:33;23.10;1.00
10263;DHT22;5177;50.068;8.156;2022-08-19T06:58:01;23.20;1.00
10263;DHT22;5177;50.068;8.156;2022-08-19T07:00:26;23.30;1.00
10263;DHT22;5177;50.068;8.156;2022-08-19T07:02:52;23.40;1.00
10263;DHT22;5177;50.068;8.156;2022-08-19T07:05:18;23.50;1.00
10263;DHT22;5177;50.068;8.156;2022-08-19T07:07:44;23.60;99.90
10263;DHT22;5177;50.068;8.156;2022-08-19T07:10:09;23.70;99.90
10263;DHT22;5177;50.068;8.156;2022-08-19T07:12:35;23.80;1.00
10263;DHT22;5177;50.068;8.156;2022-08-19T07:15:00;23.90;99.90
10263;DHT22;5177;50.068;8.156;2022-08-19T07:17:26;24.10;99.90
10263;DHT22;5177;50.068;8.156;2022-08-19T07:19:52;24.30;99.90
10263;DHT22;5177;50.068;8.156;2022-08-19T07:25:17;24.50;1.00
10263;DHT22;5177;50.068;8.156;2022-08-19T07:27:43;24.80;99.90
10263;DHT22;5177;50.068;8.156;2022-08-19T07:30:09;24.90;1.00
10263;DHT22;5177;50.068;8.156;2022-08-19T07:32:37;25.00;99.90
10263;DHT22;5177;50.068;8.156;2022-08-19T07:35:02;25.10;1.00
10263;DHT22;5177;50.068;8.156;2022-08-19T07:37:28;25.20;99.90
10263;DHT22;5177;50.068;8.156;2022-08-19T07:39:54;25.20;1.00
10263;DHT22;5177;50.068;8.156;2022-08-19T07:42:19;25.40;68.80
10263;DHT22;5177;50.068;8.156;2022-08-19T07:44:46;25.60;1.00
10263;DHT22;5177;50.068;8.156;2022-08-19T07:47:11;25.60;82.40
10263;DHT22;5177;50.068;8.156;2022-08-19T07:49:38;25.70;99.90
10263;DHT22;5177;50.068;8.156;2022-08-19T07:52:05;25.90;99.90
10263;DHT22;5177;50.068;8.156;2022-08-19T07:54:32;25.90;99.90
10263;DHT22;5177;50.068;8.156;2022-08-19T07:56:59;26.00;1.00
10263;DHT22;5177;50.068;8.156;2022-08-19T07:59:25;26.10;99.90
10263;DHT22;5177;50.068;8.156;2022-08-19T08:01:51;26.20;1.00
10263;DHT22;5177;50.068;8.156;2022-08-19T08:04:17;26.20;1.00
10263;DHT22;5177;50.068;8.156;2022-08-19T08:07:01;26.30;1.00
10263;DHT22;5177;50.068;8.156;2022-08-19T08:09:45;26.30;1.00
10263;DHT22;5177;50.068;8.156;2022-08-19T08:12:13;26.20;1.00
10263;DHT22;5177;50.068;8.156;2022-08-19T08:14:41;26.20;1.00
10263;DHT22;5177;50.068;8.156;2022-08-19T08:17:07;26.30;99.90
10263;DHT22;5177;50.068;8.156;2022-08-19T08:19:33;26.50;99.90
10263;DHT22;5177;50.068;8.156;2022-08-19T08:21:59;26.60;47.30
10263;DHT22;5177;50.068;8.156;2022-08-19T08:24:26;26.80;99.90
10263;DHT22;5177;50.068;8.156;2022-08-19T08:26:52;26.90;99.90
10263;DHT22;5177;50.068;8.156;2022-08-19T08:29:17;27.00;1.00
10263;DHT22;5177;50.068;8.156;2022-08-19T08:31:44;27.00;1.00
10263;DHT22;5177;50.068;8.156;2022-08-19T08:34:11;27.10;99.90
10263;DHT22;5177;50.068;8.156;2022-08-19T08:36:37;27.20;99.90
10263;DHT22;5177;50.068;8.156;2022-08-19T08:39:10;27.30;63.90
10263;DHT22;5177;50.068;8.156;2022-08-19T08:44:22;27.30;1.00
10263;DHT22;5177;50.068;8.156;2022-08-19T08:46:49;27.40;1.00
10263;DHT22;5177;50.068;8.156;2022-08-19T08:51:59;27.20;93.40
10263;DHT22;5177;50.068;8.156;2022-08-19T08:54:29;27.30;1.00
10263;DHT22;5177;50.068;8.156;2022-08-19T08:56:55;27.60;99.90
10263;DHT22;5177;50.068;8.156;2022-08-19T08:59:24;27.70;99.90
10263;DHT22;5177;50.068;8.156;2022-08-19T09:01:51;27.80;17.40
10263;DHT22;5177;50.068;8.156;2022-08-19T09:04:17;27.70;28.00
10263;DHT22;5177;50.068;8.156;2022-08-19T09:12:21;27.60;1.00
10263;DHT22;5177;50.068;8.156;2022-08-19T09:17:14;28.30;99.90
10263;DHT22;5177;50.068;8.156;2022-08-19T09:19:47;28.50;35.20
10263;DHT22;5177;50.068;8.156;2022-08-19T09:22:13;28.70;1.00
10263;DHT22;5177;50.068;8.156;2022-08-19T09:24:39;29.00;1.00
10263;DHT22;5177;50.068;8.156;2022-08-19T09:27:04;29.20;1.00
10263;DHT22;5177;50.068;8.156;2022-08-19T09:32:24;29.10;1.00
10263;DHT22;5177;50.068;8.156;2022-08-19T09:34:52;28.90;1.00
10263;DHT22;5177;50.068;8.156;2022-08-19T09:37:23;28.80;1.00
10263;DHT22;5177;50.068;8.156;2022-08-19T09:39:49;28.90;1.00
10263;DHT22;5177;50.068;8.156;2022-08-19T09:42:15;28.90;1.00
10263;DHT22;5177;50.068;8.156;2022-08-19T09:44:41;29.20;1.00
10263;DHT22;5177;50.068;8.156;2022-08-19T09:47:07;29.20;1.00
10263;DHT22;5177;50.068;8.156;2022-08-19T09:49:33;29.00;1.00
10263;DHT22;5177;50.068;8.156;2022-08-19T09:51:58;29.00;1.00
10263;DHT22;5177;50.068;8.156;2022-08-19T09:54:24;29.00;1.00
10263;DHT22;5177;50.068;8.156;2022-08-19T09:56:50;29.20;1.00
10263;DHT22;5177;50.068;8.156;2022-08-19T09:59:15;29.40;99.90
10263;DHT22;5177;50.068;8.156;2022-08-19T10:01:41;29.30;99.90
10263;DHT22;5177;50.068;8.156;2022-08-19T10:04:06;29.50;99.90
10263;DHT22;5177;50.068;8.156;2022-08-19T10:06:36;29.60;99.90
10263;DHT22;5177;50.068;8.156;2022-08-19T10:09:03;29.70;99.90
10263;DHT22;5177;50.068;8.156;2022-08-19T10:11:31;29.90;98.70
10263;DHT22;5177;50.068;8.156;2022-08-19T10:13:57;29.90;90.30
10263;DHT22;5177;50.068;8.156;2022-08-19T10:16:23;30.10;95.70
10263;DHT22;5177;50.068;8.156;2022-08-19T10:18:49;30.10;73.30
10263;DHT22;5177;50.068;8.156;2022-08-19T10:21:16;30.20;1.00
10263;DHT22;5177;50.068;8.156;2022-08-19T10:23:43;30.30;1.00
10263;DHT22;5177;50.068;8.156;2022-08-19T10:26:13;30.30;1.00
10263;DHT22;5177;50.068;8.156;2022-08-19T10:28:39;30.30;1.00
10263;DHT22;5177;50.068;8.156;2022-08-19T10:31:05;30.40;1.00
10263;DHT22;5177;50.068;8.156;2022-08-19T10:33:31;30.60;1.00
10263;DHT22;5177;50.068;8.156;2022-08-19T10:36:04;30.70;1.00
10263;DHT22;5177;50.068;8.156;2022-08-19T10:38:30;30.90;1.00
10263;DHT22;5177;50.068;8.156;2022-08-19T10:40:56;30.90;1.00
10263;DHT22;5177;50.068;8.156;2022-08-19T10:43:22;30.90;1.00
10263;DHT22;5177;50.068;8.156;2022-08-19T10:45:51;31.10;1.00
10263;DHT22;5177;50.068;8.156;2022-08-19T10:48:17;31.10;1.00
10263;DHT22;5177;50.068;8.156;2022-08-19T10:50:43;31.10;1.00
10263;DHT22;5177;50.068;8.156;2022-08-19T10:53:27;31.10;1.00
10263;DHT22;5177;50.068;8.156;2022-08-19T10:55:52;31.00;1.00
10263;DHT22;5177;50.068;8.156;2022-08-19T10:58:36;31.10;1.00
10263;DHT22;5177;50.068;8.156;2022-08-19T11:01:02;31.30;1.00
10263;DHT22;5177;50.068;8.156;2022-08-19T11:03:27;31.40;1.00
10263;DHT22;5177;50.068;8.156;2022-08-19T11:06:01;31.60;1.00
10263;DHT22;5177;50.068;8.156;2022-08-19T11:08:26;31.40;1.00
10263;DHT22;5177;50.068;8.156;2022-08-19T11:10:53;31.60;1.00
10263;DHT22;5177;50.068;8.156;2022-08-19T11:13:22;31.60;1.00
10263;DHT22;5177;50.068;8.156;2022-08-19T11:15:55;31.70;99.90
10263;DHT22;5177;50.068;8.156;2022-08-19T11:18:21;31.70;99.90
10263;DHT22;5177;50.068;8.156;2022-08-19T11:20:46;32.00;99.90
10263;DHT22;5177;50.068;8.156;2022-08-19T11:23:12;32.00;99.90
10263;DHT22;5177;50.068;8.156;2022-08-19T11:25:38;32.00;99.90
10263;DHT22;5177;50.068;8.156;2022-08-19T11:28:04;32.10;99.90
10263;DHT22;5177;50.068;8.156;2022-08-19T11:33:14;32.30;99.90
10263;DHT22;5177;50.068;8.156;2022-08-19T11:35:39;32.50;99.90
10263;DHT22;5177;50.068;8.156;2022-08-19T11:38:06;32.50;99.90
10263;DHT22;5177;50.068;8.156;2022-08-19T11:40:31;32.60;99.90
10263;DHT22;5177;50.068;8.156;2022-08-19T11:42:58;32.60;99.90
10263;DHT22;5177;50.068;8.156;2022-08-19T11:45:24;32.80;99.90
10263;DHT22;5177;50.068;8.156;2022-08-19T11:47:50;32.80;99.90
10263;DHT22;5177;50.068;8.156;2022-08-19T11:50:15;32.90;99.90
10263;DHT22;5177;50.068;8.156;2022-08-19T11:52:41;33.20;99.90
10263;DHT22;5177;50.068;8.156;2022-08-19T11:55:07;33.30;99.90
10263;DHT22;5177;50.068;8.156;2022-08-19T11:57:32;33.30;99.90
10263;DHT22;5177;50.068;8.156;2022-08-19T12:06:08;33.80;99.90
10263;DHT22;5177;50.068;8.156;2022-08-19T12:08:33;33.80;99.90
10263;DHT22;5177;50.068;8.156;2022-08-19T12:10:59;33.80;99.90
10263;DHT22;5177;50.068;8.156;2022-08-19T12:16:31;34.00;99.90
10263;DHT22;5177;50.068;8.156;2022-08-19T12:18:58;33.90;99.90
10263;DHT22;5177;50.068;8.156;2022-08-19T12:21:28;33.90;99.90
10263;DHT22;5177;50.068;8.156;2022-08-19T12:23:54;33.80;99.90
10263;DHT22;5177;50.068;8.156;2022-08-19T12:26:20;33.60;99.90
10263;DHT22;5177;50.068;8.156;2022-08-19T12:28:45;33.60;99.90
10263;DHT22;5177;50.068;8.156;2022-08-19T12:31:13;33.80;99.90
10263;DHT22;5177;50.068;8.156;2022-08-19T12:33:39;34.00;99.90
10263;DHT22;5177;50.068;8.156;2022-08-19T12:36:05;34.00;99.90
10263;DHT22;5177;50.068;8.156;2022-08-19T12:41:36;33.20;99.90
10263;DHT22;5177;50.068;8.156;2022-08-19T12:44:02;32.60;99.90
10263;DHT22;5177;50.068;8.156;2022-08-19T12:46:28;32.60;99.90
10263;DHT22;5177;50.068;8.156;2022-08-19T12:48:53;32.90;99.90
10263;DHT22;5177;50.068;8.156;2022-08-19T12:51:19;32.80;99.90
10263;DHT22;5177;50.068;8.156;2022-08-19T12:53:46;32.40;99.90
10263;DHT22;5177;50.068;8.156;2022-08-19T12:56:12;32.00;99.90
10263;DHT22;5177;50.068;8.156;2022-08-19T12:58:42;31.90;99.90
10263;DHT22;5177;50.068;8.156;2022-08-19T13:01:09;32.40;99.90
10263;DHT22;5177;50.068;8.156;2022-08-19T13:03:35;33.00;99.90
10263;DHT22;5177;50.068;8.156;2022-08-19T13:06:02;33.00;99.90
10263;DHT22;5177;50.068;8.156;2022-08-19T13:08:27;32.70;99.90
10263;DHT22;5177;50.068;8.156;2022-08-19T13:10:53;32.30;99.90
10263;DHT22;5177;50.068;8.156;2022-08-19T13:13:18;32.40;99.90
10263;DHT22;5177;50.068;8.156;2022-08-19T13:15:44;32.20;99.90
10263;DHT22;5177;50.068;8.156;2022-08-19T13:18:10;32.10;99.90
10263;DHT22;5177;50.068;8.156;2022-08-19T13:20:36;32.40;99.90
10263;DHT22;5177;50.068;8.156;2022-08-19T13:23:02;32.80;99.90
10263;DHT22;5177;50.068;8.156;2022-08-19T13:25:29;33.20;99.90
10263;DHT22;5177;50.068;8.156;2022-08-19T13:27:54;33.40;99.90
10263;DHT22;5177;50.068;8.156;2022-08-19T13:30:20;33.60;99.90
10263;DHT22;5177;50.068;8.156;2022-08-19T13:33:04;33.80;99.90
10263;DHT22;5177;50.068;8.156;2022-08-19T13:35:40;34.10;99.90
10263;DHT22;5177;50.068;8.156;2022-08-19T13:38:06;33.90;99.90
10263;DHT22;5177;50.068;8.156;2022-08-19T13:40:32;33.60;99.90
10263;DHT22;5177;50.068;8.156;2022-08-19T13:42:58;33.20;99.90
10263;DHT22;5177;50.068;8.156;2022-08-19T13:45:24;32.70;99.90
10263;DHT22;5177;50.068;8.156;2022-08-19T13:47:51;32.90;99.90
10263;DHT22;5177;50.068;8.156;2022-08-19T13:50:21;33.40;99.90
10263;DHT22;5177;50.068;8.156;2022-08-19T13:52:47;33.80;99.90
10263;DHT22;5177;50.068;8.156;2022-08-19T13:55:14;34.30;99.90
10263;DHT22;5177;50.068;8.156;2022-08-19T13:57:39;34.50;99.90
10263;DHT22;5177;50.068;8.156;2022-08-19T14:00:12;34.80;99.90
10263;DHT22;5177;50.068;8.156;2022-08-19T14:02:38;35.10;99.90
10263;DHT22;5177;50.068;8.156;2022-08-19T14:05:05;34.60;99.90
10263;DHT22;5177;50.068;8.156;2022-08-19T14:07:31;34.40;99.90
10263;DHT22;5177;50.068;8.156;2022-08-19T14:09:57;34.50;99.90
10263;DHT22;5177;50.068;8.156;2022-08-19T14:12:22;34.70;99.90
10263;DHT22;5177;50.068;8.156;2022-08-19T14:14:48;34.70;99.90
10263;DHT22;5177;50.068;8.156;2022-08-19T14:17:13;34.00;99.90
10263;DHT22;5177;50.068;8.156;2022-08-19T14:19:40;33.70;99.90
10263;DHT22;5177;50.068;8.156;2022-08-19T14:22:05;34.60;99.90
10263;DHT22;5177;50.068;8.156;2022-08-19T14:24:31;35.70;99.90
10263;DHT22;5177;50.068;8.156;2022-08-19T14:26:59;36.60;99.90
10263;DHT22;5177;50.068;8.156;2022-08-19T14:29:25;36.20;99.90
10263;DHT22;5177;50.068;8.156;2022-08-19T14:31:52;36.50;99.90
10263;DHT22;5177;50.068;8.156;2022-08-19T14:34:18;37.10;99.90
10263;DHT22;5177;50.068;8.156;2022-08-19T14:36:43;37.90;99.90
10263;DHT22;5177;50.068;8.156;2022-08-19T14:39:10;38.30;99.90
10263;DHT22;5177;50.068;8.156;2022-08-19T14:41:35;38.10;99.90
10263;DHT22;5177;50.068;8.156;2022-08-19T14:44:01;36.90;99.90
10263;DHT22;5177;50.068;8.156;2022-08-19T14:46:27;36.20;99.90
10263;DHT22;5177;50.068;8.156;2022-08-19T14:48:53;36.50;99.90
10263;DHT22;5177;50.068;8.156;2022-08-19T14:51:20;37.10;99.90
10263;DHT22;5177;50.068;8.156;2022-08-19T14:53:45;37.60;99.90
10263;DHT22;5177;50.068;8.156;2022-08-19T14:56:15;38.20;99.90
10263;DHT22;5177;50.068;8.156;2022-08-19T14:58:41;38.00;99.90
10263;DHT22;5177;50.068;8.156;2022-08-19T15:01:07;36.70;99.90
10263;DHT22;5177;50.068;8.156;2022-08-19T15:03:32;35.70;99.90
10263;DHT22;5177;50.068;8.156;2022-08-19T15:05:59;35.20;99.90
10263;DHT22;5177;50.068;8.156;2022-08-19T15:08:26;35.50;99.90
10263;DHT22;5177;50.068;8.156;2022-08-19T15:10:52;36.30;99.90
10263;DHT22;5177;50.068;8.156;2022-08-19T15:13:17;37.10;99.90
10263;DHT22;5177;50.068;8.156;2022-08-19T15:15:43;37.90;99.90
10263;DHT22;5177;50.068;8.156;2022-08-19T15:18:08;38.20;99.90
10263;DHT22;5177;50.068;8.156;2022-08-19T15:20:34;38.70;99.90
10263;DHT22;5177;50.068;8.156;2022-08-19T15:23:00;38.70;99.90
10263;DHT22;5177;50.068;8.156;2022-08-19T15:25:26;38.60;99.90
10263;DHT22;5177;50.068;8.156;2022-08-19T15:27:52;39.10;99.90
10263;DHT22;5177;50.068;8.156;2022-08-19T15:30:22;38.70;99.90
10263;DHT22;5177;50.068;8.156;2022-08-19T15:32:48;38.30;99.90
10263;DHT22;5177;50.068;8.156;2022-08-19T15:35:13;38.20;99.90
10263;DHT22;5177;50.068;8.156;2022-08-19T15:37:39;38.30;99.90
10263;DHT22;5177;50.068;8.156;2022-08-19T15:40:05;38.10;99.90
10263;DHT22;5177;50.068;8.156;2022-08-19T15:42:34;38.30;99.90
10263;DHT22;5177;50.068;8.156;2022-08-19T15:45:00;38.00;99.90
10263;DHT22;5177;50.068;8.156;2022-08-19T15:47:27;37.00;99.90
10263;DHT22;5177;50.068;8.156;2022-08-19T15:49:53;36.00;99.90
10263;DHT22;5177;50.068;8.156;2022-08-19T15:52:19;35.20;99.90
10263;DHT22;5177;50.068;8.156;2022-08-19T15:54:45;34.30;99.90
10263;DHT22;5177;50.068;8.156;2022-08-19T15:57:10;33.50;99.90
10263;DHT22;5177;50.068;8.156;2022-08-19T15:59:51;33.10;99.90
10263;DHT22;5177;50.068;8.156;2022-08-19T16:02:35;32.70;99.90
10263;DHT22;5177;50.068;8.156;2022-08-19T16:05:21;32.40;99.90
10263;DHT22;5177;50.068;8.156;2022-08-19T16:08:05;32.20;99.90
10263;DHT22;5177;50.068;8.156;2022-08-19T16:10:32;31.90;99.90
10263;DHT22;5177;50.068;8.156;2022-08-19T16:12:57;31.50;99.90
10263;DHT22;5177;50.068;8.156;2022-08-19T16:15:24;31.40;99.90
10263;DHT22;5177;50.068;8.156;2022-08-19T16:17:52;31.20;99.90
10263;DHT22;5177;50.068;8.156;2022-08-19T16:20:18;31.10;99.90
10263;DHT22;5177;50.068;8.156;2022-08-19T16:22:46;31.00;99.90
10263;DHT22;5177;50.068;8.156;2022-08-19T16:25:11;30.80;99.90
10263;DHT22;5177;50.068;8.156;2022-08-19T16:27:38;30.70;99.90